createdAt,value
2019-05-10T00:00:10.488Z,6.70
2019-05-10T00:02:57.591Z,6.63
2019-05-10T00:05:44.875Z,6.70
2019-05-10T00:08:31.639Z,6.20
2019-05-10T00:11:05.140Z,5.53
2019-05-10T00:13:35.960Z,5.90
2019-05-10T00:16:05.076Z,5.40
2019-05-10T00:18:33.497Z,5.80
2019-05-10T00:21:01.978Z,5.33
2019-05-10T00:23:30.742Z,4.70
2019-05-10T00:25:59.423Z,4.67
2019-05-10T00:28:27.843Z,4.70
2019-05-10T00:30:56.245Z,4.40
2019-05-10T00:33:24.974Z,5.47
2019-05-10T00:35:53.670Z,5.00
2019-05-10T00:38:22.089Z,5.30
2019-05-10T00:40:50.837Z,4.90
2019-05-10T00:43:19.263Z,5.40
2019-05-10T00:45:47.669Z,5.13
2019-05-10T00:48:16.096Z,5.77
2019-05-10T00:50:44.497Z,5.20
2019-05-10T00:53:12.942Z,5.80
2019-05-10T00:55:41.758Z,5.77
2019-05-10T00:58:10.177Z,5.00
2019-05-10T01:00:38.925Z,5.77
2019-05-10T01:03:07.354Z,5.33
2019-05-10T01:05:35.754Z,6.33
2019-05-10T01:08:04.178Z,5.57
2019-05-10T01:10:32.859Z,5.90
2019-05-10T01:13:01.561Z,6.33
2019-05-10T01:15:29.967Z,8.20
2019-05-10T01:17:58.399Z,7.90
2019-05-10T01:20:26.803Z,5.83
2019-05-10T01:22:55.211Z,8.77
2019-05-10T01:25:34.521Z,7.73
2019-05-10T01:27:54.120Z,7.67
2019-05-10T01:30:22.895Z,7.40
2019-05-10T01:32:51.312Z,7.53
2019-05-10T01:35:19.727Z,7.90
2019-05-10T01:37:48.142Z,7.37
2019-05-10T01:40:16.638Z,8.30
2019-05-10T01:42:45.431Z,8.40
2019-05-10T01:45:14.015Z,7.80
2019-05-10T01:47:42.429Z,8.60
2019-05-10T01:50:11.079Z,7.73
2019-05-10T01:52:39.777Z,7.67
2019-05-10T01:55:08.838Z,7.80
2019-05-10T01:57:37.567Z,8.10
2019-05-10T02:00:08.334Z,7.50
2019-05-10T02:02:37.116Z,8.13
2019-05-10T02:05:06.570Z,7.37
2019-05-10T02:07:34.981Z,7.97
2019-05-10T02:10:05.452Z,8.60
2019-05-10T02:12:34.203Z,8.07
2019-05-10T02:15:02.632Z,7.73
2019-05-10T02:17:31.034Z,7.07
2019-05-10T02:19:59.460Z,7.30
2019-05-10T02:22:28.134Z,8.13
2019-05-10T02:24:56.567Z,7.20
2019-05-10T02:27:24.975Z,7.70
2019-05-10T02:29:53.467Z,6.43
2019-05-10T02:32:22.175Z,6.80
2019-05-10T02:34:50.878Z,8.03
2019-05-10T02:37:19.279Z,6.83
2019-05-10T02:39:47.698Z,6.40
2019-05-10T02:42:16.425Z,6.77
2019-05-10T02:44:44.831Z,7.13
2019-05-10T02:47:13.243Z,6.63
2019-05-10T02:49:41.657Z,7.20
2019-05-10T02:52:10.466Z,5.67
2019-05-10T02:54:39.151Z,6.63
2019-05-10T02:57:08.506Z,6.80
2019-05-10T02:59:37.686Z,6.50
2019-05-10T03:02:07.165Z,7.20
2019-05-10T03:04:37.410Z,7.13
2019-05-10T03:07:06.820Z,5.97
2019-05-10T03:09:35.500Z,6.87
2019-05-10T03:12:16.255Z,7.30
2019-05-10T03:14:47.825Z,7.07
2019-05-10T03:17:18.881Z,6.43
2019-05-10T03:19:50.247Z,7.60
2019-05-10T03:22:20.807Z,6.47
2019-05-10T03:24:49.526Z,7.73
2019-05-10T03:27:17.943Z,8.10
2019-05-10T03:29:47.118Z,7.97
2019-05-10T03:32:15.548Z,7.33
2019-05-10T03:34:44.280Z,7.40
2019-05-10T03:37:12.702Z,7.20
2019-05-10T03:39:41.556Z,6.80
2019-05-10T03:42:09.975Z,9.70
2019-05-10T03:44:38.732Z,7.50
2019-05-10T03:47:07.318Z,7.70
2019-05-10T03:49:35.741Z,8.77
2019-05-10T03:52:04.219Z,8.30
2019-05-10T03:54:32.629Z,9.17
2019-05-10T03:57:13.368Z,8.80
2019-05-10T03:59:31.487Z,8.30
2019-05-10T04:01:59.917Z,8.97
2019-05-10T04:04:28.319Z,9.57
2019-05-10T04:06:56.758Z,10.17
2019-05-10T04:09:25.294Z,9.57
2019-05-10T04:11:54.015Z,9.20
2019-05-10T04:14:22.709Z,10.40
2019-05-10T04:16:51.138Z,9.57
2019-05-10T04:19:19.544Z,9.10
2019-05-10T04:21:48.280Z,10.87
2019-05-10T04:24:17.055Z,9.70
2019-05-10T04:26:45.742Z,12.07
2019-05-10T04:29:14.433Z,11.60
2019-05-10T04:31:42.846Z,12.50
2019-05-10T04:34:11.264Z,12.70
2019-05-10T04:36:39.987Z,13.83
2019-05-10T04:39:08.666Z,11.20
2019-05-10T04:41:37.086Z,12.33
2019-05-10T04:44:05.859Z,14.03
2019-05-10T04:46:34.259Z,13.23
2019-05-10T04:49:02.688Z,10.60
2019-05-10T04:51:31.102Z,11.50
2019-05-10T04:53:59.536Z,14.97
2019-05-10T04:56:28.202Z,11.93
2019-05-10T04:58:56.609Z,12.07
2019-05-10T05:01:25.032Z,11.97
2019-05-10T05:03:53.459Z,12.73
2019-05-10T05:06:22.211Z,13.97
2019-05-10T05:08:50.634Z,12.90
2019-05-10T05:11:19.389Z,10.67
2019-05-10T05:13:47.810Z,11.20
2019-05-10T05:16:16.226Z,12.77
2019-05-10T05:18:44.641Z,10.93
2019-05-10T05:21:13.319Z,12.27
2019-05-10T05:23:41.808Z,13.10
2019-05-10T05:26:10.503Z,13.00
2019-05-10T05:28:39.188Z,13.47
2019-05-10T05:31:07.581Z,8.80
2019-05-10T05:33:36.006Z,10.97
2019-05-10T05:36:04.743Z,11.83
2019-05-10T05:38:33.158Z,12.60
2019-05-10T05:41:01.574Z,13.73
2019-05-10T05:43:30.011Z,13.03
2019-05-10T05:45:58.414Z,13.10
2019-05-10T05:48:39.500Z,13.33
2019-05-10T05:50:57.316Z,14.50
2019-05-10T05:53:25.725Z,13.87
2019-05-10T05:55:54.131Z,13.63
2019-05-10T05:58:27.216Z,14.30
2019-05-10T06:00:53.085Z,12.03
2019-05-10T06:03:27.822Z,13.13
2019-05-10T06:05:51.995Z,14.20
2019-05-10T06:08:23.570Z,14.30
2019-05-10T06:10:57.390Z,13.87
2019-05-10T06:13:23.452Z,13.87
2019-05-10T06:15:51.139Z,15.40
2019-05-10T06:18:19.563Z,12.90
2019-05-10T06:20:47.981Z,12.27
2019-05-10T06:23:16.696Z,12.53
2019-05-10T06:25:45.116Z,11.20
2019-05-10T06:28:26.279Z,13.27
2019-05-10T06:30:43.704Z,11.03
2019-05-10T06:33:13.388Z,8.70
2019-05-10T06:35:42.078Z,11.00
2019-05-10T06:38:10.502Z,10.30
2019-05-10T06:40:46.519Z,10.87
2019-05-10T06:43:13.275Z,9.07
2019-05-10T06:45:39.909Z,9.20
2019-05-10T06:48:08.322Z,8.53
2019-05-10T06:50:36.986Z,9.37
2019-05-10T06:53:11.030Z,9.07
2019-05-10T06:55:35.803Z,9.30
2019-05-10T06:58:04.207Z,8.23
2019-05-10T07:00:38.001Z,7.57
2019-05-10T07:03:02.810Z,7.60
2019-05-10T07:05:31.593Z,7.10
2019-05-10T07:08:13.829Z,7.13
2019-05-10T07:10:33.708Z,6.93
2019-05-10T07:13:03.550Z,7.00
2019-05-10T07:15:35.558Z,6.23
2019-05-10T07:18:01.174Z,5.97
2019-05-10T07:20:30.947Z,5.50
2019-05-10T07:23:00.050Z,5.67
2019-05-10T07:25:29.578Z,6.00
2019-05-10T07:27:58.279Z,7.17
2019-05-10T07:30:40.529Z,5.50
2019-05-10T07:33:07.559Z,6.40
2019-05-10T07:35:38.656Z,6.33
2019-05-10T07:38:06.386Z,6.13
2019-05-10T07:40:34.806Z,5.53
2019-05-10T07:43:03.210Z,5.67
2019-05-10T07:45:31.631Z,4.70
2019-05-10T07:48:02.526Z,4.70
2019-05-10T07:50:30.517Z,6.70
2019-05-10T07:52:59.186Z,7.07
2019-05-10T07:55:29.837Z,5.83
2019-05-10T07:57:59.097Z,5.60
2019-05-10T08:00:28.157Z,5.70
2019-05-10T08:03:07.620Z,4.80
2019-05-10T08:05:29.182Z,5.83
2019-05-10T08:07:58.863Z,5.10
2019-05-10T08:10:29.023Z,5.87
2019-05-10T08:12:59.546Z,4.60
2019-05-10T08:15:32.565Z,4.73
2019-05-10T08:17:58.617Z,5.00
2019-05-10T08:20:41.631Z,5.30
2019-05-10T08:22:57.892Z,5.07
2019-05-10T08:25:29.307Z,5.40
2019-05-10T08:27:56.704Z,4.10
2019-05-10T08:30:42.749Z,4.53
2019-05-10T08:33:09.924Z,4.30
2019-05-10T08:35:39.286Z,3.73
2019-05-10T08:38:08.454Z,4.40
2019-05-10T08:40:37.997Z,4.30
2019-05-10T08:43:09.797Z,4.00
2019-05-10T08:45:38.664Z,4.90
2019-05-10T08:48:07.265Z,4.13
2019-05-10T08:50:49.320Z,5.00
2019-05-10T08:53:11.157Z,5.50
2019-05-10T08:55:36.668Z,4.80
2019-05-10T08:58:05.343Z,5.73
2019-05-10T09:00:45.151Z,4.67
2019-05-10T09:03:09.394Z,5.63
2019-05-10T09:05:34.987Z,5.40
2019-05-10T09:08:05.877Z,4.80
2019-05-10T09:10:34.069Z,3.53
2019-05-10T09:13:03.272Z,3.33
2019-05-10T09:15:33.062Z,3.00
2019-05-10T09:18:04.315Z,3.40
2019-05-10T09:20:32.151Z,2.90
2019-05-10T09:23:02.442Z,2.50
2019-05-10T09:25:33.639Z,2.30
2019-05-10T09:28:02.451Z,2.70
2019-05-10T09:30:36.721Z,3.23
2019-05-10T09:33:08.647Z,2.53
2019-05-10T09:35:38.985Z,2.50
2019-05-10T09:38:05.663Z,3.13
2019-05-10T09:40:34.073Z,3.57
2019-05-10T09:43:05.205Z,3.40
2019-05-10T09:45:32.858Z,2.57
2019-05-10T09:48:02.484Z,2.60
2019-05-10T09:50:41.187Z,2.20
2019-05-10T09:53:01.686Z,2.23
2019-05-10T09:55:30.357Z,2.10
2019-05-10T09:57:58.782Z,2.60
2019-05-10T10:00:37.677Z,1.90
2019-05-10T10:03:07.959Z,2.47
2019-05-10T10:05:39.770Z,2.47
2019-05-10T10:08:09.150Z,2.37
2019-05-10T10:10:37.172Z,2.70
2019-05-10T10:13:11.733Z,2.30
2019-05-10T10:15:37.299Z,2.30
2019-05-10T10:18:06.304Z,3.00
2019-05-10T10:20:42.823Z,2.70
2019-05-10T10:23:07.199Z,3.20
2019-05-10T10:25:40.575Z,2.97
2019-05-10T10:28:08.324Z,3.00
2019-05-10T10:30:37.395Z,2.73
2019-05-10T10:33:11.107Z,2.60
2019-05-10T10:35:37.758Z,3.00
2019-05-10T10:38:07.995Z,2.97
2019-05-10T10:40:44.213Z,2.27
2019-05-10T10:43:07.812Z,2.60
2019-05-10T10:45:37.719Z,2.93
2019-05-10T10:48:08.491Z,2.60
2019-05-10T10:50:36.938Z,2.60
2019-05-10T10:53:07.813Z,2.80
2019-05-10T10:55:37.824Z,2.40
2019-05-10T10:58:07.363Z,2.50
2019-05-10T11:00:38.786Z,2.77
2019-05-10T11:03:07.071Z,3.40
2019-05-10T11:05:35.486Z,2.50
2019-05-10T11:08:03.974Z,2.40
2019-05-10T11:10:33.002Z,2.90
2019-05-10T11:13:10.699Z,2.80
2019-05-10T11:15:35.857Z,2.80
2019-05-10T11:18:02.263Z,3.00
2019-05-10T11:20:31.773Z,2.53
2019-05-10T11:23:00.756Z,2.90
2019-05-10T11:25:29.440Z,2.40
2019-05-10T11:27:59.277Z,3.13
2019-05-10T11:30:28.248Z,3.30
2019-05-10T11:32:56.943Z,3.80
2019-05-10T11:35:31.158Z,3.67
2019-05-10T11:37:55.487Z,3.13
2019-05-10T11:40:31.050Z,3.60
2019-05-10T11:42:54.471Z,4.07
2019-05-10T11:45:26.296Z,4.17
2019-05-10T11:47:58.940Z,4.43
2019-05-10T11:50:30.856Z,3.53
2019-05-10T11:52:54.761Z,3.30
2019-05-10T11:55:23.438Z,4.30
2019-05-10T11:58:02.090Z,3.87
2019-05-10T12:00:28.539Z,4.30
2019-05-10T12:03:06.878Z,4.97
2019-05-10T12:05:26.705Z,4.00
2019-05-10T12:07:54.836Z,4.60
2019-05-10T12:10:25.690Z,4.50
2019-05-10T12:13:08.620Z,5.00
2019-05-10T12:15:25.865Z,5.53
2019-05-10T12:17:59.339Z,5.00
2019-05-10T12:20:39.372Z,4.53
2019-05-10T12:22:55.093Z,4.60
2019-05-10T12:25:42.610Z,4.80
2019-05-10T12:27:53.897Z,4.23
2019-05-10T12:30:22.598Z,3.73
2019-05-10T12:32:56.202Z,4.10
2019-05-10T12:35:21.587Z,5.03
2019-05-10T12:37:53.994Z,5.00
2019-05-10T12:40:23.810Z,4.43
2019-05-10T12:42:50.831Z,4.00
2019-05-10T12:45:22.868Z,5.77
2019-05-10T12:47:51.674Z,5.20
2019-05-10T12:50:20.338Z,4.00
2019-05-10T12:53:02.669Z,5.40
2019-05-10T12:55:19.241Z,4.57
2019-05-10T12:57:47.641Z,4.87
2019-05-10T13:00:16.532Z,5.67
2019-05-10T13:02:51.202Z,5.67
2019-05-10T13:05:15.801Z,5.53
2019-05-10T13:07:45.002Z,4.90
2019-05-10T13:10:15.080Z,5.73
2019-05-10T13:12:46.854Z,5.03
2019-05-10T13:15:14.878Z,4.37
2019-05-10T13:17:49.588Z,4.33
2019-05-10T13:20:14.591Z,8.40
2019-05-10T13:22:43.003Z,19.10
2019-05-10T13:25:13.335Z,6.00
2019-05-10T13:27:41.763Z,5.43
2019-05-10T13:30:10.884Z,7.37
2019-05-10T13:32:39.670Z,5.93
2019-05-10T13:35:08.730Z,5.17
2019-05-10T13:37:37.462Z,6.30
2019-05-10T13:40:08.106Z,7.77
2019-05-10T13:42:43.232Z,5.83
2019-05-10T13:45:07.610Z,6.37
2019-05-10T13:47:36.318Z,8.07
2019-05-10T13:50:07.102Z,8.90
2019-05-10T13:52:41.029Z,7.63
2019-05-10T13:55:07.200Z,7.83
2019-05-10T13:57:35.882Z,9.00
2019-05-10T14:00:07.733Z,8.10
2019-05-10T14:02:36.163Z,8.77
2019-05-10T14:05:06.442Z,7.70
2019-05-10T14:07:34.872Z,8.83
2019-05-10T14:10:03.911Z,8.50
2019-05-10T14:12:32.330Z,8.40
2019-05-10T14:15:03.047Z,9.37
2019-05-10T14:17:31.155Z,8.77
2019-05-10T14:20:00.026Z,8.43
2019-05-10T14:22:28.441Z,8.00
2019-05-10T14:24:59.033Z,9.30
2019-05-10T14:27:30.013Z,9.03
2019-05-10T14:29:57.121Z,8.57
2019-05-10T14:32:25.539Z,8.90
2019-05-10T14:34:53.949Z,8.43
2019-05-10T14:37:22.374Z,7.10
2019-05-10T14:39:50.782Z,8.90
2019-05-10T14:42:23.818Z,8.20
2019-05-10T14:44:49.667Z,7.57
2019-05-10T14:47:18.151Z,7.77
2019-05-10T14:49:48.667Z,9.60
2019-05-10T14:52:17.004Z,7.60
2019-05-10T14:54:49.683Z,8.97
2019-05-10T14:57:15.549Z,8.80
2019-05-10T14:59:43.983Z,7.60
2019-05-10T15:02:16.944Z,8.63
2019-05-10T15:04:44.888Z,8.83
2019-05-10T15:07:14.382Z,9.17
2019-05-10T15:09:43.139Z,9.10
2019-05-10T15:12:16.405Z,9.20
2019-05-10T15:14:41.699Z,9.90
2019-05-10T15:17:10.193Z,8.90
2019-05-10T15:19:39.031Z,9.50
2019-05-10T15:22:07.430Z,10.20
2019-05-10T15:24:35.859Z,9.33
2019-05-10T15:27:04.354Z,10.20
2019-05-10T15:29:32.775Z,10.00
2019-05-10T15:32:01.536Z,9.50
2019-05-10T15:34:30.234Z,11.00
2019-05-10T15:37:02.466Z,10.30
2019-05-10T15:39:30.533Z,10.80
2019-05-10T15:42:00.642Z,10.70
2019-05-10T15:44:31.156Z,10.13
2019-05-10T15:46:59.315Z,11.40
2019-05-10T15:49:27.753Z,12.37
2019-05-10T15:52:15.160Z,11.00
2019-05-10T15:54:26.599Z,8.80
2019-05-10T15:56:55.913Z,10.37
2019-05-10T15:59:24.591Z,9.63
2019-05-10T16:01:53.061Z,9.47
2019-05-10T16:04:21.766Z,9.23
2019-05-10T16:06:50.174Z,8.20
2019-05-10T16:09:19.373Z,9.27
2019-05-10T16:11:47.953Z,9.00
2019-05-10T16:14:16.730Z,9.87
2019-05-10T16:16:45.442Z,9.60
2019-05-10T16:19:18.528Z,9.90
2019-05-10T16:21:46.610Z,10.23
2019-05-10T16:24:24.919Z,10.27
2019-05-10T16:26:45.192Z,8.83
2019-05-10T16:29:13.887Z,11.17
2019-05-10T16:31:43.492Z,12.13
2019-05-10T16:34:12.202Z,11.43
2019-05-10T16:36:40.610Z,10.30
2019-05-10T16:39:09.471Z,11.67
2019-05-10T16:41:38.266Z,10.80
2019-05-10T16:44:06.693Z,11.23
2019-05-10T16:46:35.105Z,12.07
2019-05-10T16:49:03.527Z,10.70
2019-05-10T16:51:31.954Z,10.80
2019-05-10T16:54:00.376Z,10.90
2019-05-10T16:56:29.059Z,11.70
2019-05-10T16:58:59.474Z,11.57
2019-05-10T17:01:27.870Z,10.90
2019-05-10T17:04:00.104Z,11.13
2019-05-10T17:06:26.821Z,10.90
2019-05-10T17:08:55.242Z,12.60
2019-05-10T17:11:23.952Z,11.43
2019-05-10T17:13:55.237Z,14.27
2019-05-10T17:16:22.514Z,13.80
2019-05-10T17:18:55.234Z,11.00
2019-05-10T17:21:21.407Z,11.07
2019-05-10T17:23:49.822Z,11.40
2019-05-10T17:26:18.309Z,11.77
2019-05-10T17:28:46.721Z,11.17
2019-05-10T17:31:39.527Z,10.43
2019-05-10T17:34:05.071Z,10.20
2019-05-10T17:36:33.493Z,11.80
2019-05-10T17:39:01.970Z,10.57
2019-05-10T17:41:30.410Z,11.90
2019-05-10T17:43:59.127Z,11.33
2019-05-10T17:46:27.545Z,11.97
2019-05-10T17:48:56.000Z,11.30
2019-05-10T17:51:24.491Z,11.43
2019-05-10T17:53:54.974Z,13.47
2019-05-10T17:56:23.693Z,12.30
2019-05-10T17:58:52.097Z,12.70
2019-05-10T18:01:21.202Z,11.83
2019-05-10T18:03:49.617Z,10.87
2019-05-10T18:06:23.842Z,11.40
2019-05-10T18:08:48.276Z,12.20
2019-05-10T18:11:16.754Z,12.57
2019-05-10T18:13:45.177Z,13.10
2019-05-10T18:16:13.654Z,12.20
2019-05-10T18:18:46.723Z,11.43
2019-05-10T18:21:15.951Z,11.67
2019-05-10T18:23:42.670Z,11.70
2019-05-10T18:26:11.078Z,12.60
2019-05-10T18:28:39.982Z,12.30
2019-05-10T18:31:08.854Z,13.17
2019-05-10T18:33:37.322Z,13.23
2019-05-10T18:36:05.807Z,12.40
2019-05-10T18:38:37.069Z,11.43
2019-05-10T18:41:05.421Z,12.10
2019-05-10T18:43:35.424Z,12.73
2019-05-10T18:46:05.479Z,13.97
2019-05-10T18:48:33.915Z,27.00
2019-05-10T18:51:02.327Z,15.07
2019-05-10T18:53:30.778Z,13.57
2019-05-10T18:55:59.177Z,13.27
2019-05-10T18:58:29.540Z,14.17
2019-05-10T19:01:00.684Z,14.50
2019-05-10T19:03:33.454Z,14.50
2019-05-10T19:05:58.098Z,13.90
2019-05-10T19:08:27.102Z,14.13
2019-05-10T19:10:55.549Z,14.87
2019-05-10T19:13:24.260Z,14.43
2019-05-10T19:15:57.748Z,15.40
2019-05-10T19:18:25.412Z,15.90
2019-05-10T19:20:55.102Z,15.20
2019-05-10T19:23:23.490Z,14.20
2019-05-10T19:25:53.818Z,13.93
2019-05-10T19:28:26.973Z,14.53
2019-05-10T19:30:52.814Z,13.73
2019-05-10T19:33:22.458Z,14.40
2019-05-10T19:35:51.222Z,15.00
2019-05-10T19:38:19.654Z,15.60
2019-05-10T19:40:48.062Z,14.10
2019-05-10T19:43:21.883Z,14.43
2019-05-10T19:45:51.083Z,15.80
2019-05-10T19:48:16.807Z,15.07
2019-05-10T19:50:45.218Z,16.33
2019-05-10T19:53:14.123Z,18.70
2019-05-10T19:55:42.544Z,20.37
2019-05-10T19:58:10.966Z,19.40
2019-05-10T20:00:39.858Z,20.40
2019-05-10T20:03:08.312Z,19.10
2019-05-10T20:05:36.781Z,19.17
2019-05-10T20:08:05.266Z,17.80
2019-05-10T20:10:33.686Z,19.77
2019-05-10T20:13:02.097Z,21.20
2019-05-10T20:15:30.519Z,19.03
2019-05-10T20:17:59.187Z,20.07
2019-05-10T20:20:27.835Z,17.30
2019-05-10T20:22:56.537Z,15.67
2019-05-10T20:25:25.027Z,17.20
2019-05-10T20:27:53.703Z,18.07
2019-05-10T20:30:22.221Z,18.03
2019-05-10T20:32:50.616Z,16.40
2019-05-10T20:35:19.043Z,16.50
2019-05-10T20:38:00.842Z,16.73
2019-05-10T20:40:18.787Z,17.73
2019-05-10T20:42:47.190Z,18.40
2019-05-10T20:45:15.686Z,17.20
2019-05-10T20:47:44.362Z,16.87
2019-05-10T20:50:13.146Z,18.27
2019-05-10T20:52:42.354Z,17.67
2019-05-10T20:55:11.642Z,16.63
2019-05-10T20:57:40.060Z,18.30
2019-05-10T21:00:08.803Z,18.50
2019-05-10T21:02:37.238Z,17.17
2019-05-10T21:05:07.521Z,16.53
2019-05-10T21:07:36.343Z,18.00
2019-05-10T21:10:07.134Z,18.00
2019-05-10T21:12:35.552Z,15.33
2019-05-10T21:15:07.995Z,17.27
2019-05-10T21:17:36.533Z,14.93
2019-05-10T21:20:07.010Z,16.73
2019-05-10T21:22:35.470Z,16.23
2019-05-10T21:25:05.900Z,16.90
2019-05-10T21:27:34.327Z,16.43
2019-05-10T21:30:03.018Z,18.13
2019-05-10T21:32:31.711Z,17.30
2019-05-10T21:35:00.553Z,18.27
2019-05-10T21:37:28.969Z,19.63
2019-05-10T21:39:57.387Z,18.93
2019-05-10T21:42:25.812Z,19.00
2019-05-10T21:44:54.539Z,19.53
2019-05-10T21:47:22.963Z,19.03
2019-05-10T21:49:51.550Z,17.97
2019-05-10T21:52:20.306Z,17.50
2019-05-10T21:54:48.990Z,17.70
2019-05-10T21:57:17.423Z,18.23
2019-05-10T21:59:45.838Z,19.73
2019-05-10T22:02:14.738Z,18.53
2019-05-10T22:04:43.442Z,20.87
2019-05-10T22:07:11.861Z,19.37
2019-05-10T22:09:40.723Z,19.90
2019-05-10T22:12:09.427Z,19.30
2019-05-10T22:14:38.306Z,17.97
2019-05-10T22:17:06.732Z,19.50
2019-05-10T22:19:35.138Z,19.43
2019-05-10T22:22:03.781Z,18.03
2019-05-10T22:24:32.651Z,19.70
2019-05-10T22:27:01.055Z,19.00
2019-05-10T22:29:29.485Z,19.37
2019-05-10T22:31:57.893Z,18.63
2019-05-10T22:34:26.313Z,19.20
2019-05-10T22:36:54.722Z,18.57
2019-05-10T22:39:23.154Z,19.60
2019-05-10T22:41:53.129Z,19.37
2019-05-10T22:44:22.071Z,19.77
2019-05-10T22:46:50.488Z,18.57
2019-05-10T22:49:18.906Z,19.00
2019-05-10T22:51:47.319Z,18.33
2019-05-10T22:54:16.227Z,18.77
2019-05-10T22:56:44.894Z,19.17
2019-05-10T22:59:13.598Z,18.73
2019-05-10T23:01:42.020Z,19.00
2019-05-10T23:04:10.862Z,19.13
2019-05-10T23:06:39.551Z,17.90
2019-05-10T23:09:23.371Z,19.70
2019-05-10T23:11:38.885Z,19.17
2019-05-10T23:14:07.324Z,18.60
2019-05-10T23:16:36.060Z,19.10
2019-05-10T23:19:04.474Z,18.53
2019-05-10T23:21:33.227Z,18.60
2019-05-10T23:24:03.555Z,18.63
2019-05-10T23:26:32.239Z,18.93
2019-05-10T23:29:00.926Z,20.47
2019-05-10T23:31:29.343Z,18.53
2019-05-10T23:33:58.102Z,18.77
2019-05-10T23:36:26.897Z,19.73
2019-05-10T23:38:55.583Z,21.13
2019-05-10T23:41:23.990Z,20.43
2019-05-10T23:43:52.879Z,20.83
2019-05-10T23:46:21.370Z,20.37
2019-05-10T23:48:49.795Z,20.83
2019-05-10T23:51:18.206Z,20.27
2019-05-10T23:53:46.902Z,21.37
2019-05-10T23:56:15.309Z,21.73
2019-05-10T23:58:44.096Z,21.97
